Time;durP1;ratioP1;P1;durP2;ratioP2;P2;SDS_P1;SDS_P2;PMS_P1;PMS_P2;Temp;Humidity;BMP_temperature;BMP_pressure;BME280_temperature;BME280_humidity;BME280_pressure;Samples;Min_cycle;Max_cycle;Signal;HPM_P1;HPM_P2
2023/05/05 00:01:48;;;;;;;0.20;0.20;;;8.60;99.90;;;;;;5034621;28;20079;-68
2023/05/05 00:04:14;;;;;;;0.17;0.17;;;8.60;99.90;;;;;;5034413;28;20037;-68
2023/05/05 00:06:39;;;;;;;0.13;0.13;;;8.60;99.90;;;;;;5034322;28;20033;-68
2023/05/05 00:09:05;;;;;;;0.20;0.20;;;8.60;99.90;;;;;;5034538;28;20026;-68
2023/05/05 00:11:31;;;;;;;0.20;0.20;;;8.50;99.90;;;;;;5034478;28;20030;-68
2023/05/05 00:13:57;;;;;;;0.15;0.15;;;8.60;99.90;;;;;;5034394;28;20039;-67
2023/05/05 00:16:22;;;;;;;0.20;0.20;;;8.60;99.90;;;;;;5034474;28;20025;-67
2023/05/05 00:18:48;;;;;;;0.20;0.20;;;8.50;99.90;;;;;;5033895;28;20030;-68
2023/05/05 00:21:14;;;;;;;0.10;0.10;;;8.50;99.90;;;;;;5034622;28;20032;-68
2023/05/05 00:23:39;;;;;;;0.10;0.10;;;8.60;99.90;;;;;;5034407;28;20034;-68
2023/05/05 00:26:05;;;;;;;0.20;0.20;;;8.50;99.90;;;;;;5033764;28;20040;-67
2023/05/05 00:28:31;;;;;;;0.20;0.20;;;8.60;99.90;;;;;;5034028;28;20036;-67
2023/05/05 00:30:56;;;;;;;0.10;0.10;;;8.50;99.90;;;;;;5033956;28;20037;-68
2023/05/05 00:33:22;;;;;;;0.20;0.20;;;8.50;99.90;;;;;;5033385;28;20014;-68
2023/05/05 00:35:47;;;;;;;0.10;0.10;;;8.50;99.90;;;;;;5033945;28;20097;-67
2023/05/05 00:38:13;;;;;;;0.20;0.20;;;8.60;99.90;;;;;;5034027;28;20537;-67
2023/05/05 00:40:38;;;;;;;0.20;0.20;;;8.60;99.90;;;;;;5033937;28;20029;-68
2023/05/05 00:43:04;;;;;;;0.10;0.10;;;8.50;99.90;;;;;;5034173;28;20028;-67
2023/05/05 00:45:30;;;;;;;0.10;0.10;;;8.50;99.90;;;;;;5034017;28;20064;-68
2023/05/05 00:47:58;;;;;;;0.20;0.20;;;8.50;99.90;;;;;;5033298;28;20132;-68
2023/05/05 00:50:25;;;;;;;0.20;0.20;;;8.50;99.90;;;;;;5033650;28;20394;-68
2023/05/05 00:52:53;;;;;;;0.20;0.20;;;8.50;99.90;;;;;;5033503;28;20022;-68
2023/05/05 00:55:19;;;;;;;0.10;0.10;;;8.60;99.90;;;;;;5033205;28;20033;-67
2023/05/05 00:57:45;;;;;;;0.20;0.20;;;8.50;99.90;;;;;;5033898;28;20049;-67
2023/05/05 01:00:11;;;;;;;0.10;0.10;;;8.50;99.90;;;;;;5033721;28;20025;-68
2023/05/05 01:02:38;;;;;;;0.10;0.10;;;8.50;99.90;;;;;;5033514;28;20026;-68
2023/05/05 01:05:04;;;;;;;0.15;0.15;;;8.50;99.90;;;;;;5033227;28;20580;-67
2023/05/05 01:07:53;;;;;;;0.20;0.20;;;8.50;99.90;;;;;;5033080;28;20487;-68
2023/05/05 01:10:59;;;;;;;0.15;0.15;;;8.50;99.90;;;;;;5033433;28;20044;-68
2023/05/05 01:13:51;;;;;;;0.20;0.20;;;8.50;99.90;;;;;;4983744;28;20034;-68
2023/05/05 01:16:32;;;;;;;0.10;0.10;;;8.50;99.90;;;;;;5013426;28;20018;-68
2023/05/05 01:19:39;;;;;;;0.20;0.20;;;8.50;99.90;;;;;;5012862;28;20168;-67
2023/05/05 01:22:10;;;;;;;0.17;0.17;;;8.50;99.90;;;;;;5013504;28;20022;-68
2023/05/05 01:24:47;;;;;;;0.10;0.10;;;8.50;99.90;;;;;;5021469;28;20394;-68
2023/05/05 01:27:32;;;;;;;0.20;0.20;;;8.40;99.90;;;;;;5033053;28;20029;-67
2023/05/05 01:30:04;;;;;;;0.20;0.20;;;8.50;99.90;;;;;;5032855;28;20025;-68
2023/05/05 01:32:36;;;;;;;0.15;0.15;;;8.50;99.90;;;;;;5034040;28;20052;-67
2023/05/05 01:35:17;;;;;;;0.15;0.15;;;8.50;99.90;;;;;;5033008;28;20499;-67
2023/05/05 01:37:46;;;;;;;0.10;0.10;;;8.40;99.90;;;;;;5033365;28;20053;-68
2023/05/05 01:40:16;;;;;;;0.10;0.10;;;8.40;99.90;;;;;;5013560;28;20415;-67
2023/05/05 01:42:42;;;;;;;0.10;0.10;;;8.40;99.90;;;;;;5013205;28;20034;-68
2023/05/05 01:45:11;;;;;;;0.20;0.20;;;8.30;99.90;;;;;;5012365;28;20028;-68
2023/05/05 01:47:38;;;;;;;0.20;0.20;;;8.30;99.90;;;;;;5017049;28;20024;-68
2023/05/05 01:50:06;;;;;;;0.20;0.20;;;8.30;99.90;;;;;;5039445;28;20101;-67
2023/05/05 01:52:34;;;;;;;0.20;0.20;;;8.30;99.90;;;;;;5039507;28;20025;-67
2023/05/05 01:55:01;;;;;;;0.10;0.10;;;8.30;99.90;;;;;;5039438;28;20029;-68
2023/05/05 01:57:30;;;;;;;0.20;0.20;;;8.30;99.90;;;;;;5038707;28;20032;-67
2023/05/05 01:59:57;;;;;;;0.20;0.20;;;8.30;99.90;;;;;;5039600;28;20029;-68
2023/05/05 02:02:27;;;;;;;0.20;0.20;;;8.20;99.90;;;;;;5039013;28;20029;-67
2023/05/05 02:04:55;;;;;;;0.20;0.20;;;8.20;99.90;;;;;;5059918;23;20041;-73
2023/05/05 02:07:22;;;;;;;0.20;0.20;;;8.20;99.90;;;;;;5039988;28;20033;-74
2023/05/05 02:09:48;;;;;;;0.17;0.17;;;8.20;99.90;;;;;;5038575;28;20026;-73
2023/05/05 02:12:15;;;;;;;0.20;0.20;;;8.20;99.90;;;;;;5039523;28;20075;-74
2023/05/05 02:14:42;;;;;;;0.30;0.30;;;8.20;99.90;;;;;;5050208;28;20032;-74
2023/05/05 02:17:09;;;;;;;0.20;0.20;;;8.20;99.90;;;;;;5039190;28;20025;-74
2023/05/05 02:19:40;;;;;;;0.20;0.20;;;8.20;99.90;;;;;;5039026;28;20021;-74
2023/05/05 02:22:06;;;;;;;0.10;0.10;;;8.20;99.90;;;;;;5038804;28;20399;-73
2023/05/05 02:24:32;;;;;;;0.20;0.20;;;8.20;99.90;;;;;;5039110;28;20032;-73
2023/05/05 02:27:00;;;;;;;0.30;0.30;;;8.20;99.90;;;;;;5039115;28;20029;-74
2023/05/05 02:29:33;;;;;;;0.20;0.20;;;8.10;99.90;;;;;;5038891;28;20022;-73
2023/05/05 02:32:04;;;;;;;0.10;0.10;;;8.10;99.90;;;;;;5051269;28;20033;-74
2023/05/05 02:34:35;;;;;;;0.10;0.10;;;8.10;99.90;;;;;;5058279;28;20021;-74
2023/05/05 02:37:05;;;;;;;0.13;0.13;;;8.10;99.90;;;;;;5059103;28;20028;-74
2023/05/05 02:39:44;;;;;;;0.20;0.20;;;8.10;99.90;;;;;;5059161;28;20032;-74
2023/05/05 02:42:14;;;;;;;0.30;0.30;;;8.00;99.90;;;;;;5058443;28;20029;-74
2023/05/05 02:44:41;;;;;;;0.20;0.20;;;8.10;99.90;;;;;;5058448;28;20083;-73
2023/05/05 02:47:07;;;;;;;0.10;0.10;;;8.10;99.90;;;;;;5058634;28;20032;-73
2023/05/05 02:49:32;;;;;;;0.20;0.20;;;8.10;99.90;;;;;;5058885;28;20029;-74
2023/05/05 02:51:58;;;;;;;0.10;0.10;;;8.10;99.90;;;;;;5058487;28;20471;-74
2023/05/05 02:54:26;;;;;;;0.20;0.20;;;8.10;99.90;;;;;;5059040;28;20021;-74
2023/05/05 02:56:53;;;;;;;0.10;0.10;;;8.10;99.90;;;;;;5058196;28;20032;-73
2023/05/05 02:59:29;;;;;;;0.10;0.10;;;8.00;99.90;;;;;;5055283;28;20032;-74
2023/05/05 03:02:16;;;;;;;0.20;0.20;;;8.10;99.90;;;;;;5037613;28;20032;-73
2023/05/05 03:04:49;;;;;;;0.20;0.20;;;8.00;99.90;;;;;;5055323;28;20057;-74
2023/05/05 03:07:37;;;;;;;0.20;0.20;;;8.00;99.90;;;;;;5055363;28;20478;-74
2023/05/05 03:10:07;;;;;;;0.20;0.20;;;8.00;99.90;;;;;;5037084;28;20036;-73
2023/05/05 03:12:50;;;;;;;0.17;0.17;;;8.10;99.90;;;;;;5037212;28;20043;-73
2023/05/05 03:15:17;;;;;;;0.20;0.20;;;8.10;99.90;;;;;;5055219;28;20049;-74
2023/05/05 03:17:45;;;;;;;0.28;0.28;;;8.00;99.90;;;;;;5055055;28;20032;-73
2023/05/05 03:20:11;;;;;;;0.20;0.20;;;8.10;99.90;;;;;;5037320;28;20028;-74
2023/05/05 03:22:37;;;;;;;0.20;0.20;;;8.00;99.90;;;;;;5054851;28;20059;-73
2023/05/05 03:25:03;;;;;;;0.10;0.10;;;8.00;99.90;;;;;;5055109;28;20053;-74
2023/05/05 03:27:29;;;;;;;0.20;0.20;;;8.10;99.90;;;;;;5044871;28;20017;-74
2023/05/05 03:29:55;;;;;;;0.17;0.17;;;8.10;99.90;;;;;;5034901;28;20025;-74
2023/05/05 03:32:22;;;;;;;0.20;0.20;;;8.00;99.90;;;;;;5048102;28;20064;-73
2023/05/05 03:34:48;;;;;;;0.20;0.20;;;8.10;99.90;;;;;;5054853;28;20071;-73
2023/05/05 03:37:14;;;;;;;0.20;0.20;;;8.00;99.90;;;;;;5054839;28;20033;-74
2023/05/05 03:39:39;;;;;;;0.10;0.10;;;8.10;99.90;;;;;;5037166;28;20017;-74
2023/05/05 03:42:05;;;;;;;0.20;0.20;;;8.00;99.90;;;;;;5054703;28;20104;-73
2023/05/05 03:44:30;;;;;;;0.15;0.15;;;8.00;99.90;;;;;;5054346;28;20057;-74
2023/05/05 03:46:56;;;;;;;0.20;0.20;;;8.00;99.90;;;;;;5054514;28;20032;-74
2023/05/05 03:49:21;;;;;;;0.20;0.20;;;8.00;99.90;;;;;;5054748;28;20033;-74
2023/05/05 03:51:47;;;;;;;0.20;0.20;;;8.00;99.90;;;;;;5054344;28;20470;-73
2023/05/05 03:54:12;;;;;;;0.20;0.20;;;8.00;99.90;;;;;;5053907;28;20025;-74
2023/05/05 03:56:38;;;;;;;0.10;0.10;;;8.00;99.90;;;;;;5036644;28;20391;-74
2023/05/05 03:59:04;;;;;;;0.20;0.20;;;8.10;99.90;;;;;;5054229;28;20072;-74
2023/05/05 04:01:30;;;;;;;0.20;0.20;;;8.00;99.90;;;;;;5054894;28;20028;-74
2023/05/05 04:03:56;;;;;;;0.20;0.20;;;8.00;99.90;;;;;;5053824;28;20032;-74
2023/05/05 04:06:22;;;;;;;0.20;0.20;;;8.00;99.90;;;;;;5053858;28;20029;-74
2023/05/05 04:08:47;;;;;;;0.20;0.20;;;8.00;99.90;;;;;;5054352;28;20100;-74
2023/05/05 04:11:13;;;;;;;0.10;0.10;;;8.10;99.90;;;;;;5054324;28;20041;-74
2023/05/05 04:13:39;;;;;;;0.10;0.10;;;8.10;99.90;;;;;;5053954;28;20028;-73
2023/05/05 04:16:04;;;;;;;0.10;0.10;;;8.00;99.90;;;;;;5054171;28;20028;-73
2023/05/05 04:18:30;;;;;;;0.20;0.20;;;8.10;99.90;;;;;;5053651;28;20393;-74
2023/05/05 04:20:56;;;;;;;0.20;0.20;;;8.10;99.90;;;;;;5054241;28;20037;-73
2023/05/05 04:23:21;;;;;;;0.20;0.20;;;8.10;99.90;;;;;;5053926;28;20028;-73
2023/05/05 04:25:47;;;;;;;0.10;0.10;;;8.10;99.90;;;;;;5054097;28;20040;-74
2023/05/05 04:28:12;;;;;;;0.10;0.10;;;8.20;99.90;;;;;;5053231;28;20033;-73
2023/05/05 04:30:38;;;;;;;0.20;0.20;;;8.20;99.90;;;;;;5053654;28;20029;-74
2023/05/05 04:33:04;;;;;;;0.20;0.20;;;8.20;99.90;;;;;;5053776;28;20017;-73
2023/05/05 04:35:29;;;;;;;0.13;0.13;;;8.20;99.90;;;;;;5053854;28;20021;-73
2023/05/05 04:37:55;;;;;;;0.20;0.20;;;8.20;99.90;;;;;;5053080;28;20029;-73
2023/05/05 04:40:20;;;;;;;0.20;0.20;;;8.20;99.90;;;;;;5053681;28;20092;-73
2023/05/05 04:42:46;;;;;;;0.20;0.20;;;8.20;99.90;;;;;;5053506;28;20021;-74
2023/05/05 04:45:12;;;;;;;0.13;0.13;;;8.20;99.90;;;;;;5053752;28;20114;-73
2023/05/05 04:47:40;;;;;;;0.10;0.10;;;8.20;99.90;;;;;;5053485;28;20021;-73
2023/05/05 04:50:07;;;;;;;0.10;0.10;;;8.20;99.90;;;;;;5053250;28;20363;-74
2023/05/05 04:52:33;;;;;;;0.20;0.20;;;8.20;99.90;;;;;;5053560;28;20044;-73
2023/05/05 04:54:59;;;;;;;0.20;0.20;;;8.20;99.90;;;;;;5053157;28;20483;-73
2023/05/05 04:57:24;;;;;;;0.20;0.20;;;8.20;99.90;;;;;;5035732;28;20021;-73
2023/05/05 04:59:50;;;;;;;0.20;0.20;;;8.20;99.90;;;;;;5053111;28;20036;-73
2023/05/05 05:02:16;;;;;;;0.20;0.20;;;8.20;99.90;;;;;;5034915;28;20032;-74
2023/05/05 05:04:41;;;;;;;0.10;0.10;;;8.20;99.90;;;;;;5053125;28;20457;-73
2023/05/05 05:07:07;;;;;;;0.15;0.15;;;8.20;99.90;;;;;;5053208;28;20083;-73
2023/05/05 05:09:32;;;;;;;0.20;0.20;;;8.20;99.90;;;;;;5053190;28;20025;-73
2023/05/05 05:11:59;;;;;;;0.17;0.17;;;8.30;99.90;;;;;;5034934;28;20029;-73
2023/05/05 05:14:26;;;;;;;0.20;0.20;;;8.30;99.90;;;;;;5032925;28;20028;-74
2023/05/05 05:16:52;;;;;;;0.20;0.20;;;8.40;99.90;;;;;;5033047;28;20018;-73
2023/05/05 05:19:18;;;;;;;0.13;0.13;;;8.50;99.90;;;;;;5033265;28;20036;-73
2023/05/05 05:21:43;;;;;;;0.20;0.20;;;8.60;99.90;;;;;;5032498;28;20033;-73
2023/05/05 05:24:10;;;;;;;0.10;0.10;;;8.70;99.90;;;;;;5040178;28;20467;-74
2023/05/05 05:26:36;;;;;;;0.20;0.20;;;8.70;99.90;;;;;;5034658;28;20032;-74
2023/05/05 05:29:02;;;;;;;0.20;0.20;;;8.80;99.90;;;;;;5052879;28;20032;-73
2023/05/05 05:31:28;;;;;;;0.17;0.17;;;8.80;99.90;;;;;;5053345;28;20028;-74
2023/05/05 05:33:55;;;;;;;0.20;0.20;;;8.90;99.90;;;;;;5052432;28;20025;-74
2023/05/05 05:36:20;;;;;;;0.10;0.10;;;8.90;99.90;;;;;;5052894;28;20551;-74
2023/05/05 05:38:46;;;;;;;0.20;0.20;;;8.90;99.90;;;;;;5052069;28;20033;-74
2023/05/05 05:41:11;;;;;;;0.20;0.20;;;8.90;99.90;;;;;;5052916;28;20075;-74
2023/05/05 05:43:37;;;;;;;0.13;0.13;;;8.80;99.90;;;;;;5034844;28;20033;-74
2023/05/05 05:46:02;;;;;;;0.13;0.13;;;8.90;99.90;;;;;;5052736;28;20029;-74
2023/05/05 05:48:28;;;;;;;0.20;0.20;;;8.80;99.90;;;;;;5052417;28;20483;-74
2023/05/05 05:50:55;;;;;;;0.20;0.20;;;8.80;99.90;;;;;;5052034;28;20032;-74
2023/05/05 05:53:20;;;;;;;0.20;0.20;;;8.90;99.90;;;;;;5052411;28;20497;-74
2023/05/05 05:55:46;;;;;;;0.10;0.10;;;8.90;99.90;;;;;;5052572;28;20112;-74
2023/05/05 05:58:11;;;;;;;0.20;0.20;;;9.00;99.90;;;;;;5034800;28;20017;-74
2023/05/05 06:00:37;;;;;;;0.20;0.20;;;9.10;99.90;;;;;;5052367;28;20025;-74
2023/05/05 06:03:02;;;;;;;0.20;0.20;;;9.30;99.90;;;;;;5052688;28;20556;-74
2023/05/05 06:05:28;;;;;;;0.20;0.20;;;9.40;99.90;;;;;;5051705;28;20116;-74
2023/05/05 06:07:53;;;;;;;0.20;0.20;;;9.60;99.90;;;;;;5052192;28;20033;-74
2023/05/05 06:10:19;;;;;;;0.13;0.13;;;9.70;99.90;;;;;;5052401;28;20398;-74
2023/05/05 06:12:45;;;;;;;0.20;0.20;;;9.80;99.90;;;;;;5052167;28;20028;-74
2023/05/05 06:15:10;;;;;;;0.20;0.20;;;9.90;99.90;;;;;;5052680;28;20025;-74
2023/05/05 06:17:36;;;;;;;0.20;0.20;;;10.10;99.90;;;;;;5052330;28;20029;-74
2023/05/05 06:20:01;;;;;;;0.15;0.15;;;10.10;99.90;;;;;;5052087;28;20028;-74
2023/05/05 06:22:27;;;;;;;0.20;0.20;;;10.10;99.90;;;;;;5052321;28;20444;-74
2023/05/05 06:24:52;;;;;;;0.10;0.10;;;10.10;99.90;;;;;;5052265;28;20025;-74
2023/05/05 06:27:18;;;;;;;0.10;0.10;;;10.00;99.90;;;;;;5052315;28;20395;-74
2023/05/05 06:29:43;;;;;;;0.10;0.10;;;9.90;99.90;;;;;;5052131;28;20029;-74
2023/05/05 06:32:11;;;;;;;0.20;0.20;;;10.00;99.90;;;;;;5052025;28;20036;-75
2023/05/05 06:34:36;;;;;;;0.10;0.10;;;10.00;99.90;;;;;;5055384;28;20433;-75
2023/05/05 06:37:02;;;;;;;0.10;0.10;;;10.00;99.90;;;;;;5056038;28;20021;-75
2023/05/05 06:39:27;;;;;;;0.17;0.17;;;10.00;99.90;;;;;;5055342;28;20021;-75
2023/05/05 06:41:53;;;;;;;0.20;0.20;;;10.10;99.90;;;;;;5038110;28;20075;-75
2023/05/05 06:44:18;;;;;;;0.20;0.20;;;10.20;99.90;;;;;;5056118;28;20107;-75
2023/05/05 06:46:44;;;;;;;0.20;0.20;;;10.40;99.90;;;;;;5055429;28;20111;-75
2023/05/05 06:49:09;;;;;;;0.20;0.20;;;10.60;99.90;;;;;;5056036;28;20078;-75
2023/05/05 06:51:35;;;;;;;0.10;0.10;;;10.40;99.90;;;;;;5056433;28;20044;-75
2023/05/05 06:54:00;;;;;;;0.10;0.10;;;10.30;99.90;;;;;;5055895;28;20025;-77
2023/05/05 06:56:27;;;;;;;0.10;0.10;;;10.20;99.90;;;;;;5038362;28;20020;-77
2023/05/05 06:58:52;;;;;;;0.10;0.10;;;10.30;99.90;;;;;;5037983;28;20027;-75
2023/05/05 07:01:18;;;;;;;0.20;0.20;;;10.30;99.90;;;;;;5037394;28;20017;-76
2023/05/05 07:03:43;;;;;;;0.10;0.10;;;10.50;99.90;;;;;;5055832;28;20045;-76
2023/05/05 07:06:09;;;;;;;0.17;0.17;;;10.60;99.90;;;;;;5055707;28;20029;-75
2023/05/05 07:08:34;;;;;;;0.10;0.10;;;10.70;99.90;;;;;;5055909;28;20029;-75
2023/05/05 07:11:00;;;;;;;0.10;0.10;;;10.90;99.90;;;;;;5055800;28;20112;-75
2023/05/05 07:13:26;;;;;;;0.20;0.20;;;11.20;99.90;;;;;;5055548;28;20017;-75
2023/05/05 07:15:52;;;;;;;0.20;0.20;;;11.60;99.90;;;;;;5054999;28;20025;-75
2023/05/05 07:18:19;;;;;;;0.20;0.20;;;11.70;99.90;;;;;;5055582;28;20013;-74
2023/05/05 07:20:45;;;;;;;0.20;0.20;;;11.70;99.90;;;;;;5055441;28;20078;-75
2023/05/05 07:23:10;;;;;;;0.20;0.20;;;11.80;99.90;;;;;;5055390;28;20024;-75
2023/05/05 07:25:36;;;;;;;0.20;0.20;;;11.80;99.90;;;;;;5054698;28;20021;-75
2023/05/05 07:28:03;;;;;;;0.20;0.20;;;11.90;99.90;;;;;;5055478;28;20078;-75
2023/05/05 07:30:28;;;;;;;0.20;0.20;;;11.80;99.90;;;;;;5055172;28;20024;-75
2023/05/05 07:32:54;;;;;;;0.20;0.20;;;11.70;99.90;;;;;;5055507;28;20432;-75
2023/05/05 07:35:19;;;;;;;0.13;0.13;;;11.40;99.90;;;;;;5055285;28;20025;-75
2023/05/05 07:37:45;;;;;;;0.20;0.20;;;11.30;99.90;;;;;;5054607;28;20029;-74
2023/05/05 07:40:12;;;;;;;0.20;0.20;;;11.30;99.90;;;;;;5037246;28;20079;-75
2023/05/05 07:42:37;;;;;;;0.10;0.10;;;11.40;99.90;;;;;;5055036;28;20056;-74
2023/05/05 07:45:03;;;;;;;0.10;0.10;;;11.60;99.90;;;;;;5054273;28;20395;-74
2023/05/05 07:47:29;;;;;;;0.10;0.10;;;11.70;99.90;;;;;;5054390;28;20091;-75
2023/05/05 07:49:55;;;;;;;0.20;0.20;;;11.70;99.90;;;;;;5054953;28;20474;-74
2023/05/05 07:52:20;;;;;;;0.20;0.20;;;11.80;99.90;;;;;;5054775;28;20029;-74
2023/05/05 07:54:47;;;;;;;0.20;0.20;;;11.90;99.90;;;;;;5054748;28;20021;-74
2023/05/05 07:57:13;;;;;;;0.17;0.17;;;12.00;99.90;;;;;;5037131;28;20391;-75
2023/05/05 07:59:42;;;;;;;0.13;0.13;;;12.40;99.90;;;;;;5054261;28;20017;-75
2023/05/05 08:02:08;;;;;;;0.10;0.10;;;12.70;99.90;;;;;;5054699;28;20025;-75
2023/05/05 08:04:34;;;;;;;0.20;0.20;;;13.00;99.90;;;;;;5042310;23;20518;-74
2023/05/05 08:07:00;;;;;;;0.17;0.17;;;13.10;99.90;;;;;;5014929;28;20026;-74
2023/05/05 08:09:25;;;;;;;0.20;0.20;;;13.20;99.90;;;;;;5014914;28;20080;-75
2023/05/05 08:11:51;;;;;;;0.10;0.10;;;13.10;99.90;;;;;;5004461;28;20045;-74
2023/05/05 08:14:16;;;;;;;0.20;0.20;;;12.80;99.90;;;;;;5012906;28;20029;-74
2023/05/05 08:16:42;;;;;;;0.13;0.13;;;12.50;99.90;;;;;;5022164;28;20437;-74
2023/05/05 08:19:07;;;;;;;0.10;0.10;;;12.40;99.90;;;;;;5034235;28;20028;-74
2023/05/05 08:21:33;;;;;;;0.10;0.10;;;12.70;99.90;;;;;;5034063;28;20041;-74
2023/05/05 08:23:58;;;;;;;0.20;0.20;;;13.10;99.90;;;;;;5033774;28;20033;-74
2023/05/05 08:26:24;;;;;;;0.10;0.10;;;13.20;99.90;;;;;;5034093;28;20075;-74
2023/05/05 08:28:53;;;;;;;0.10;0.10;;;13.20;99.90;;;;;;5034247;28;20033;-74
2023/05/05 08:31:19;;;;;;;0.20;0.20;;;13.40;99.90;;;;;;5016221;28;20632;-74
2023/05/05 08:33:45;;;;;;;0.10;0.10;;;13.40;99.90;;;;;;5033927;28;20060;-74
2023/05/05 08:36:10;;;;;;;0.10;0.10;;;13.40;99.90;;;;;;5033580;28;20065;-73
2023/05/05 08:38:36;;;;;;;0.10;0.10;;;13.30;99.90;;;;;;5034015;28;20025;-73
2023/05/05 08:41:01;;;;;;;0.20;0.20;;;13.70;99.90;;;;;;5034486;28;20033;-74
2023/05/05 08:43:27;;;;;;;0.15;0.15;;;14.00;99.90;;;;;;5033938;28;20391;-74
2023/05/05 08:45:55;;;;;;;0.20;0.20;;;14.00;99.90;;;;;;5033802;28;20510;-74
2023/05/05 08:48:22;;;;;;;0.10;0.10;;;14.10;99.90;;;;;;5015776;28;20031;-74
2023/05/05 08:50:52;;;;;;;0.10;0.10;;;14.30;99.90;;;;;;5034088;28;20033;-74
2023/05/05 08:53:34;;;;;;;0.10;0.10;;;14.60;99.90;;;;;;5034137;28;20467;-74
2023/05/05 08:56:01;;;;;;;0.10;0.10;;;14.90;99.90;;;;;;5032932;28;20364;-74
2023/05/05 08:58:29;;;;;;;0.10;0.10;;;15.20;99.90;;;;;;5033058;28;20104;-74
2023/05/05 09:00:55;;;;;;;0.10;0.10;;;15.40;99.90;;;;;;5034652;28;20442;-74
2023/05/05 09:03:21;;;;;;;0.10;0.10;;;15.20;99.90;;;;;;5033553;28;20105;-74
2023/05/05 09:05:47;;;;;;;0.10;0.10;;;14.80;99.90;;;;;;5033482;28;20064;-74
2023/05/05 09:08:13;;;;;;;0.20;0.20;;;14.80;99.90;;;;;;5015808;28;20555;-75
2023/05/05 09:10:42;;;;;;;0.20;0.20;;;14.40;99.90;;;;;;5032898;28;20026;-74
2023/05/05 09:13:08;;;;;;;0.20;0.20;;;14.30;99.90;;;;;;5033452;28;20079;-74
2023/05/05 09:15:33;;;;;;;0.20;0.20;;;14.30;99.90;;;;;;5033390;28;20025;-74
2023/05/05 09:18:00;;;;;;;0.20;0.20;;;14.60;99.90;;;;;;5015666;28;20112;-74
2023/05/05 09:20:33;;;;;;;0.10;0.10;;;14.70;99.90;;;;;;5033215;28;20072;-74
2023/05/05 09:23:09;;;;;;;0.20;0.20;;;14.80;99.90;;;;;;5032902;28;20060;-74
2023/05/05 09:25:35;;;;;;;0.15;0.15;;;15.00;99.90;;;;;;5015367;28;20426;-74
2023/05/05 09:28:12;;;;;;;0.10;0.10;;;15.10;99.90;;;;;;5033178;28;20043;-74
2023/05/05 09:30:39;;;;;;;0.10;0.10;;;15.10;99.90;;;;;;5033179;28;20108;-74
2023/05/05 09:33:05;;;;;;;0.10;0.10;;;15.30;99.90;;;;;;5032830;28;20057;-73
2023/05/05 09:35:47;;;;;;;0.10;0.10;;;15.10;99.90;;;;;;5032630;28;20025;-74
2023/05/05 09:38:13;;;;;;;0.10;0.10;;;14.90;99.90;;;;;;5033140;28;20048;-74
2023/05/05 09:40:46;;;;;;;0.10;0.10;;;14.80;99.90;;;;;;5033122;28;20025;-74
2023/05/05 09:43:12;;;;;;;0.15;0.15;;;15.00;99.90;;;;;;5033185;28;20025;-74
2023/05/05 09:45:37;;;;;;;0.10;0.10;;;15.10;99.90;;;;;;5014797;28;20083;-74
2023/05/05 09:48:05;;;;;;;0.20;0.20;;;15.20;99.90;;;;;;5032977;28;20438;-74
2023/05/05 09:50:44;;;;;;;0.10;0.10;;;15.00;99.90;;;;;;5014987;28;20029;-73
2023/05/05 09:53:10;;;;;;;0.20;0.20;;;15.10;99.90;;;;;;5033010;28;20364;-72
2023/05/05 09:55:36;;;;;;;0.10;0.10;;;15.00;99.90;;;;;;5032945;28;20192;-71
2023/05/05 09:58:19;;;;;;;0.20;0.20;;;15.10;99.90;;;;;;5032280;28;20022;-72
2023/05/05 10:00:45;;;;;;;0.20;0.20;;;15.20;99.90;;;;;;5033244;28;20499;-72
2023/05/05 10:03:11;;;;;;;0.20;0.20;;;15.20;99.90;;;;;;5015206;28;20030;-72
2023/05/05 10:05:54;;;;;;;0.10;0.10;;;15.30;99.90;;;;;;5032799;28;20525;-73
2023/05/05 10:08:30;;;;;;;0.20;0.20;;;15.40;99.90;;;;;;5015946;28;20079;-72
2023/05/05 10:10:59;;;;;;;0.10;0.10;;;15.10;99.90;;;;;;5036288;28;20033;-72
2023/05/05 10:13:25;;;;;;;0.10;0.10;;;14.70;99.90;;;;;;5035140;28;20100;-72
2023/05/05 10:15:53;;;;;;;0.10;0.10;;;14.90;99.90;;;;;;5016845;28;20018;-72
2023/05/05 10:18:26;;;;;;;0.10;0.10;;;15.10;99.90;;;;;;5026090;28;20021;-73
2023/05/05 10:20:59;;;;;;;0.10;0.10;;;15.60;99.90;;;;;;5033363;28;20022;-73
2023/05/05 10:23:40;;;;;;;0.20;0.20;;;15.70;99.90;;;;;;5016787;28;20396;-73
2023/05/05 10:26:09;;;;;;;0.17;0.17;;;15.10;99.90;;;;;;5016883;28;20503;-73
2023/05/05 10:28:43;;;;;;;0.20;0.20;;;14.80;99.90;;;;;;5016187;28;20103;-72
2023/05/05 10:31:19;;;;;;;0.17;0.17;;;14.70;99.90;;;;;;5016656;28;20030;-72
2023/05/05 10:34:02;;;;;;;0.20;0.20;;;14.60;99.90;;;;;;5016898;28;20025;-73
2023/05/05 10:36:29;;;;;;;0.20;0.20;;;15.20;99.90;;;;;;5016632;28;20037;-73
2023/05/05 10:38:56;;;;;;;0.20;0.20;;;15.50;99.90;;;;;;4998829;28;20496;-72
2023/05/05 10:41:23;;;;;;;0.20;0.20;;;15.20;99.90;;;;;;5016062;28;20037;-72
2023/05/05 10:43:50;;;;;;;0.10;0.10;;;14.60;99.90;;;;;;5016437;28;20037;-72
2023/05/05 10:46:16;;;;;;;0.20;0.20;;;14.40;99.90;;;;;;5013403;28;20037;-72
2023/05/05 10:48:50;;;;;;;0.10;0.10;;;14.20;99.90;;;;;;5035952;28;20038;-72
2023/05/05 10:51:45;;;;;;;0.20;0.20;;;13.80;99.90;;;;;;5035437;28;20022;-71
2023/05/05 10:54:31;;;;;;;0.10;0.10;;;13.50;99.90;;;;;;5036012;28;20022;-72
2023/05/05 10:57:01;;;;;;;0.10;0.10;;;13.20;99.90;;;;;;5031170;28;20120;-71
2023/05/05 10:59:35;;;;;;;0.20;0.20;;;12.80;99.90;;;;;;5016197;28;20029;-71
2023/05/05 11:02:17;;;;;;;0.20;0.20;;;12.60;99.90;;;;;;5016052;28;20396;-71
2023/05/05 11:04:42;;;;;;;0.20;0.20;;;12.40;99.90;;;;;;5016045;28;20045;-71
2023/05/05 11:07:08;;;;;;;0.10;0.10;;;12.40;99.90;;;;;;5015565;28;20026;-71
2023/05/05 11:09:40;;;;;;;0.28;0.28;;;12.20;99.90;;;;;;5026084;28;20052;-71
2023/05/05 11:12:07;;;;;;;0.20;0.20;;;12.10;99.90;;;;;;5035479;28;20034;-71
2023/05/05 11:14:32;;;;;;;0.10;0.10;;;12.10;99.90;;;;;;5035779;28;20361;-71
2023/05/05 11:16:58;;;;;;;0.10;0.10;;;12.20;99.90;;;;;;5035366;28;20041;-71
2023/05/05 11:19:41;;;;;;;0.10;0.10;;;12.20;99.90;;;;;;5034001;28;20053;-73
2023/05/05 11:22:08;;;;;;;0.15;0.15;;;12.40;99.90;;;;;;5024903;28;20030;-73
2023/05/05 11:24:35;;;;;;;0.10;0.10;;;12.30;99.90;;;;;;5015335;28;20080;-73
2023/05/05 11:27:01;;;;;;;0.20;0.20;;;12.30;99.90;;;;;;5015555;28;20026;-73
2023/05/05 11:29:46;;;;;;;0.20;0.20;;;12.20;99.90;;;;;;5015237;28;20487;-73
2023/05/05 11:32:15;;;;;;;0.20;0.20;;;12.50;99.90;;;;;;5017276;28;20442;-72
2023/05/05 11:34:48;;;;;;;0.20;0.20;;;12.80;99.90;;;;;;5015392;28;20072;-73
2023/05/05 11:37:15;;;;;;;0.20;0.20;;;13.40;99.90;;;;;;5015357;28;20014;-73
2023/05/05 11:39:59;;;;;;;0.20;0.20;;;13.90;99.90;;;;;;5015316;28;20431;-72
2023/05/05 11:42:25;;;;;;;0.10;0.10;;;14.00;99.90;;;;;;5015406;28;20403;-73
2023/05/05 11:44:51;;;;;;;0.20;0.20;;;13.80;99.90;;;;;;5023881;28;20128;-73
2023/05/05 11:47:16;;;;;;;0.13;0.13;;;13.70;99.90;;;;;;5034978;28;20052;-73
2023/05/05 11:49:42;;;;;;;0.10;0.10;;;14.10;99.90;;;;;;5035290;28;20152;-73
2023/05/05 11:52:12;;;;;;;0.20;0.20;;;14.20;99.90;;;;;;5034346;28;20080;-71
2023/05/05 11:54:48;;;;;;;0.20;0.20;;;13.90;99.90;;;;;;5034885;28;20032;-73
2023/05/05 11:57:18;;;;;;;0.10;0.10;;;13.30;99.90;;;;;;5033087;28;20028;-72
2023/05/05 11:59:59;;;;;;;0.10;0.10;;;12.90;99.90;;;;;;5034211;28;20094;-72
2023/05/05 12:02:26;;;;;;;0.20;0.20;;;12.60;99.90;;;;;;5034816;28;20083;-73
2023/05/05 12:04:52;;;;;;;0.20;0.20;;;12.60;99.90;;;;;;5016779;28;20030;-72
2023/05/05 12:07:20;;;;;;;0.10;0.10;;;12.70;99.90;;;;;;5033443;28;20479;-73
2023/05/05 12:09:47;;;;;;;0.10;0.10;;;12.70;99.90;;;;;;5031725;28;20577;-73
2023/05/05 12:12:13;;;;;;;0.10;0.10;;;12.80;99.90;;;;;;5034110;28;20087;-73
2023/05/05 12:14:51;;;;;;;0.10;0.10;;;12.90;99.90;;;;;;5034250;28;20037;-72
2023/05/05 12:17:18;;;;;;;0.10;0.10;;;13.00;99.90;;;;;;5034465;28;20108;-73
2023/05/05 12:19:49;;;;;;;0.10;0.10;;;13.00;99.90;;;;;;5033781;28;20096;-73
2023/05/05 12:22:32;;;;;;;0.20;0.20;;;12.90;99.90;;;;;;5034460;28;20376;-72
2023/05/05 12:25:00;;;;;;;0.13;0.13;;;12.80;99.90;;;;;;5034125;28;20446;-72
2023/05/05 12:27:27;;;;;;;0.13;0.13;;;12.70;99.90;;;;;;5034071;28;20025;-72
2023/05/05 12:29:54;;;;;;;0.10;0.10;;;12.50;99.90;;;;;;5034038;28;20563;-72
2023/05/05 12:32:26;;;;;;;0.20;0.20;;;12.40;99.90;;;;;;5033744;28;20033;-72
2023/05/05 12:34:54;;;;;;;0.20;0.20;;;12.40;99.90;;;;;;5033485;28;20391;-72
2023/05/05 12:37:21;;;;;;;0.13;0.13;;;12.50;99.90;;;;;;5034115;28;20018;-72
2023/05/05 12:39:47;;;;;;;0.10;0.10;;;12.50;99.90;;;;;;5033885;28;20028;-72
2023/05/05 12:42:13;;;;;;;0.20;0.20;;;12.40;99.90;;;;;;5034149;28;20037;-72
2023/05/05 12:44:40;;;;;;;0.17;0.17;;;12.10;99.90;;;;;;5033796;28;20033;-72
2023/05/05 12:47:06;;;;;;;0.15;0.15;;;12.00;99.90;;;;;;5033702;28;20483;-72
2023/05/05 12:49:44;;;;;;;0.20;0.20;;;11.90;99.90;;;;;;5034035;28;20025;-72
2023/05/05 12:52:09;;;;;;;0.15;0.15;;;11.70;99.90;;;;;;5034082;28;20432;-72
2023/05/05 12:54:53;;;;;;;0.10;0.10;;;11.60;99.90;;;;;;5033711;28;20068;-72
2023/05/05 12:57:19;;;;;;;;;;;11.60;99.90;;;;;;5034476;28;20104;-72
2023/05/05 12:59:44;;;;;;;0.17;0.17;;;11.40;99.90;;;;;;5033191;28;19991;-72